TimeEDT,TemperatureF,Dew PointF,Humidity,Sea Level PressureIn,VisibilityMPH,Wind Direction,Wind SpeedMPH,Gust SpeedMPH,PrecipitationIn,Events,Conditions,WindDirDegrees,DateUTC
12:51 AM,55.0,48.9,80,30.25,10.0,East,4.6,-,N/A,,Clear,90,2013-05-27 04:51:00
1:51 AM,55.0,48.9,80,30.25,10.0,Calm,Calm,-,N/A,,Clear,0,2013-05-27 05:51:00
2:51 AM,53.1,48.9,86,30.25,10.0,Calm,Calm,-,N/A,,Clear,0,2013-05-27 06:51:00
3:51 AM,52.0,48.0,86,30.25,10.0,Calm,Calm,-,N/A,,Clear,0,2013-05-27 07:51:00
4:51 AM,51.1,48.0,89,30.25,10.0,Calm,Calm,-,N/A,,Clear,0,2013-05-27 08:51:00
5:51 AM,51.1,48.0,89,30.26,10.0,Calm,Calm,-,N/A,,Clear,0,2013-05-27 09:51:00
6:51 AM,57.9,53.1,84,30.28,10.0,Calm,Calm,-,N/A,,Clear,0,2013-05-27 10:51:00
7:51 AM,71.1,53.1,53,30.29,10.0,Calm,Calm,-,N/A,,Clear,0,2013-05-27 11:51:00
8:51 AM,72.0,45.0,38,30.29,10.0,Calm,Calm,-,N/A,,Clear,0,2013-05-27 12:51:00
9:51 AM,75.0,48.9,40,30.30,10.0,Calm,Calm,-,N/A,,Clear,0,2013-05-27 13:51:00
10:51 AM,75.0,44.1,33,30.30,10.0,Calm,Calm,-,N/A,,Clear,0,2013-05-27 14:51:00
11:51 AM,78.1,44.1,30,30.30,10.0,SSE,4.6,-,N/A,,Clear,150,2013-05-27 15:51:00
12:51 PM,77.0,44.1,31,30.30,10.0,SSE,4.6,-,N/A,,Clear,160,2013-05-27 16:51:00
1:51 PM,79.0,48.0,34,30.28,10.0,SE,5.8,-,N/A,,Clear,140,2013-05-27 17:51:00
2:51 PM,78.1,50.0,37,30.28,10.0,ESE,6.9,-,N/A,,Clear,120,2013-05-27 18:51:00
3:51 PM,79.0,50.0,36,30.27,10.0,SE,6.9,-,N/A,,Clear,140,2013-05-27 19:51:00
4:51 PM,77.0,51.1,40,30.26,10.0,SSE,5.8,-,N/A,,Clear,150,2013-05-27 20:51:00
5:51 PM,77.0,53.1,43,30.24,10.0,SSE,6.9,-,N/A,,Clear,150,2013-05-27 21:51:00
6:51 PM,75.0,54.0,48,30.23,10.0,SSE,6.9,-,N/A,,Clear,160,2013-05-27 22:51:00
7:51 PM,73.0,52.0,48,30.25,10.0,South,8.1,-,N/A,,Clear,170,2013-05-27 23:51:00
8:51 PM,72.0,51.1,48,30.25,10.0,South,6.9,-,N/A,,Clear,170,2013-05-28 00:51:00
9:51 PM,72.0,52.0,49,30.26,10.0,South,9.2,-,N/A,,Clear,170,2013-05-28 01:51:00
10:51 PM,72.0,53.1,51,30.27,10.0,South,9.2,-,N/A,,Clear,170,2013-05-28 02:51:00
11:51 PM,72.0,53.1,51,30.27,10.0,South,9.2,-,N/A,,Clear,180,2013-05-28 03:51:00